KAXS/AXS METAR and TAF weather

Enter ICAO airport designator
Station Type Date Time Source
KAXS METAR 2020/02/16 19:55 UTC NOAA

KAXS 161955Z AUTO 26005KT 10SM CLR 17/04 A2992 RMK AO2 T01720044


Station Type Date Time Source
KAXS Decoded METAR 2020/02/16 19:55 UTC NOAA

Altus, Altus/Quartz Mountain Regional Airport, OK, United States (KAXS) 34-41-55N 099-20-17W
Feb 16, 2020 - 02:55 PM EST / 2020.02.16 1955 UTC
Wind: from the W (260 degrees) at 6 MPH (5 KT):0
Visibility: 10 mile(s):0
Sky conditions: clear
Temperature: 63.0 F (17.2 C)
Dew Point: 39.9 F (4.4 C)
Relative Humidity: 42%
Pressure (altimeter): 29.92 in. Hg (1013 hPa)
ob: KAXS 161955Z AUTO 26005KT 10SM CLR 17/04 A2992 RMK AO2 T01720044
cycle: 20

Station Type Date Time Source
KAXS TAF UTC NOAA

Error!

Example: see airport list